sensor_id;sensor_type;location;lat;lon;timestamp;pressure;altitude;pressure_sealevel;temperature;humidity
61805;BME280;47725;47.912;7.356;2023-07-24T00:03:51;98493.95;;;23.46;48.82
61805;BME280;47725;47.912;7.356;2023-07-24T00:07:51;98494.90;;;23.42;48.71
61805;BME280;47725;47.912;7.356;2023-07-24T00:11:51;98495.04;;;23.37;48.88
61805;BME280;47725;47.912;7.356;2023-07-24T00:15:51;98495.12;;;23.32;49.01
61805;BME280;47725;47.912;7.356;2023-07-24T00:19:51;98492.19;;;23.27;48.91
61805;BME280;47725;47.912;7.356;2023-07-24T00:23:51;98489.12;;;23.24;48.69
61805;BME280;47725;47.912;7.356;2023-07-24T00:27:51;98486.89;;;23.20;48.89
61805;BME280;47725;47.912;7.356;2023-07-24T00:31:51;98485.86;;;23.16;49.00
61805;BME280;47725;47.912;7.356;2023-07-24T00:35:54;98483.83;;;23.11;49.37
61805;BME280;47725;47.912;7.356;2023-07-24T00:39:51;98482.31;;;23.05;49.57
61805;BME280;47725;47.912;7.356;2023-07-24T00:43:51;98480.39;;;22.99;49.62
61805;BME280;47725;47.912;7.356;2023-07-24T00:47:51;98479.47;;;22.92;49.99
61805;BME280;47725;47.912;7.356;2023-07-24T00:51:51;98478.31;;;22.86;50.11
61805;BME280;47725;47.912;7.356;2023-07-24T00:55:51;98475.32;;;22.80;50.45
61805;BME280;47725;47.912;7.356;2023-07-24T00:59:51;98471.67;;;22.73;50.88
61805;BME280;47725;47.912;7.356;2023-07-24T01:03:51;98467.03;;;22.67;50.97
61805;BME280;47725;47.912;7.356;2023-07-24T01:07:52;98463.30;;;22.62;50.88
61805;BME280;47725;47.912;7.356;2023-07-24T01:11:59;98460.31;;;22.58;50.92
61805;BME280;47725;47.912;7.356;2023-07-24T01:16:05;98456.58;;;22.55;50.93
61805;BME280;47725;47.912;7.356;2023-07-24T01:19:52;98449.88;;;22.53;51.08
61805;BME280;47725;47.912;7.356;2023-07-24T01:27:51;98436.91;;;22.48;51.24
61805;BME280;47725;47.912;7.356;2023-07-24T01:31:51;98432.39;;;22.46;51.45
61805;BME280;47725;47.912;7.356;2023-07-24T01:35:53;98430.16;;;22.46;51.61
61805;BME280;47725;47.912;7.356;2023-07-24T01:39:51;98426.06;;;22.45;51.62
61805;BME280;47725;47.912;7.356;2023-07-24T01:43:51;98422.33;;;22.45;51.59
61805;BME280;47725;47.912;7.356;2023-07-24T01:47:51;98419.11;;;22.45;51.99
61805;BME280;47725;47.912;7.356;2023-07-24T01:51:51;98414.76;;;22.46;51.75
61805;BME280;47725;47.912;7.356;2023-07-24T01:55:51;98412.28;;;22.49;51.63
61805;BME280;47725;47.912;7.356;2023-07-24T01:59:51;98408.53;;;22.52;51.70
61805;BME280;47725;47.912;7.356;2023-07-24T02:03:51;98405.54;;;22.53;51.97
61805;BME280;47725;47.912;7.356;2023-07-24T02:07:51;98400.95;;;22.55;51.83
61805;BME280;47725;47.912;7.356;2023-07-24T02:11:51;98395.58;;;22.56;51.73
61805;BME280;47725;47.912;7.356;2023-07-24T02:15:51;98391.97;;;22.57;51.82
61805;BME280;47725;47.912;7.356;2023-07-24T02:19:51;98386.51;;;22.57;51.82
61805;BME280;47725;47.912;7.356;2023-07-24T02:23:51;98382.33;;;22.56;52.04
61805;BME280;47725;47.912;7.356;2023-07-24T02:27:51;98378.56;;;22.54;52.08
61805;BME280;47725;47.912;7.356;2023-07-24T02:31:53;98376.74;;;22.52;52.09
61805;BME280;47725;47.912;7.356;2023-07-24T02:35:51;98374.88;;;22.49;52.14
61805;BME280;47725;47.912;7.356;2023-07-24T02:39:51;98374.99;;;22.47;52.27
61805;BME280;47725;47.912;7.356;2023-07-24T02:43:51;98375.73;;;22.45;52.13
61805;BME280;47725;47.912;7.356;2023-07-24T02:47:51;98377.51;;;22.43;52.24
61805;BME280;47725;47.912;7.356;2023-07-24T02:51:51;98379.00;;;22.40;52.36
61805;BME280;47725;47.912;7.356;2023-07-24T02:55:51;98380.36;;;22.36;52.41
61805;BME280;47725;47.912;7.356;2023-07-24T02:59:51;98383.62;;;22.31;52.68
61805;BME280;47725;47.912;7.356;2023-07-24T03:03:51;98385.40;;;22.25;53.05
61805;BME280;47725;47.912;7.356;2023-07-24T03:07:51;98385.72;;;22.18;53.39
61805;BME280;47725;47.912;7.356;2023-07-24T03:11:51;98386.91;;;22.11;53.51
61805;BME280;47725;47.912;7.356;2023-07-24T03:15:54;98388.30;;;22.05;53.78
61805;BME280;47725;47.912;7.356;2023-07-24T03:19:51;98390.11;;;22.02;53.47
61805;BME280;47725;47.912;7.356;2023-07-24T03:23:51;98392.27;;;22.02;53.03
61805;BME280;47725;47.912;7.356;2023-07-24T03:27:51;98391.05;;;22.03;53.11
61805;BME280;47725;47.912;7.356;2023-07-24T03:31:51;98386.97;;;22.02;53.17
61805;BME280;47725;47.912;7.356;2023-07-24T03:35:51;98382.90;;;22.01;53.31
61805;BME280;47725;47.912;7.356;2023-07-24T03:39:51;98379.14;;;22.00;53.36
61805;BME280;47725;47.912;7.356;2023-07-24T03:43:51;98379.68;;;22.01;53.24
61805;BME280;47725;47.912;7.356;2023-07-24T03:47:51;98378.69;;;22.02;53.29
61805;BME280;47725;47.912;7.356;2023-07-24T03:51:51;98378.94;;;22.02;53.62
61805;BME280;47725;47.912;7.356;2023-07-24T03:55:51;98381.45;;;22.00;53.55
61805;BME280;47725;47.912;7.356;2023-07-24T03:59:51;98385.71;;;21.99;53.74
61805;BME280;47725;47.912;7.356;2023-07-24T04:03:51;98390.88;;;21.96;53.88
61805;BME280;47725;47.912;7.356;2023-07-24T04:07:51;98397.15;;;21.94;54.06
61805;BME280;47725;47.912;7.356;2023-07-24T04:11:51;98405.58;;;21.91;54.07
61805;BME280;47725;47.912;7.356;2023-07-24T04:15:51;98412.88;;;21.89;54.14
61805;BME280;47725;47.912;7.356;2023-07-24T04:19:51;98421.11;;;21.87;54.33
61805;BME280;47725;47.912;7.356;2023-07-24T04:23:51;98427.09;;;21.86;54.61
61805;BME280;47725;47.912;7.356;2023-07-24T04:27:51;98431.39;;;21.83;55.01
61805;BME280;47725;47.912;7.356;2023-07-24T04:31:51;98434.77;;;21.83;54.77
61805;BME280;47725;47.912;7.356;2023-07-24T04:35:51;98438.75;;;21.83;55.30
61805;BME280;47725;47.912;7.356;2023-07-24T04:39:51;98443.80;;;21.84;55.24
61805;BME280;47725;47.912;7.356;2023-07-24T04:43:51;98447.60;;;21.86;55.38
61805;BME280;47725;47.912;7.356;2023-07-24T04:47:51;98446.95;;;21.90;55.31
61805;BME280;47725;47.912;7.356;2023-07-24T04:51:51;98444.67;;;21.96;55.20
61805;BME280;47725;47.912;7.356;2023-07-24T04:55:51;98442.27;;;22.03;55.05
61805;BME280;47725;47.912;7.356;2023-07-24T04:59:51;98440.42;;;22.11;55.16
61805;BME280;47725;47.912;7.356;2023-07-24T05:03:51;98439.37;;;22.20;55.50
61805;BME280;47725;47.912;7.356;2023-07-24T05:07:51;98439.56;;;22.27;55.63
61805;BME280;47725;47.912;7.356;2023-07-24T05:11:50;98437.33;;;22.34;55.73
61805;BME280;47725;47.912;7.356;2023-07-24T05:15:51;98432.51;;;22.41;55.85
61805;BME280;47725;47.912;7.356;2023-07-24T05:19:51;98427.47;;;22.48;56.06
61805;BME280;47725;47.912;7.356;2023-07-24T05:23:50;98424.66;;;22.54;56.19
61805;BME280;47725;47.912;7.356;2023-07-24T05:27:50;98422.85;;;22.60;56.54
61805;BME280;47725;47.912;7.356;2023-07-24T05:31:50;98420.95;;;22.66;56.32
61805;BME280;47725;47.912;7.356;2023-07-24T05:35:51;98421.37;;;22.73;56.34
61805;BME280;47725;47.912;7.356;2023-07-24T05:39:50;98422.81;;;22.80;56.67
61805;BME280;47725;47.912;7.356;2023-07-24T05:43:50;98428.25;;;22.85;56.69
61805;BME280;47725;47.912;7.356;2023-07-24T05:47:50;98431.16;;;22.92;56.73
61805;BME280;47725;47.912;7.356;2023-07-24T05:51:50;98432.84;;;22.98;56.38
61805;BME280;47725;47.912;7.356;2023-07-24T05:55:57;98434.63;;;23.07;56.09
61805;BME280;47725;47.912;7.356;2023-07-24T05:59:50;98436.63;;;23.16;55.56
61805;BME280;47725;47.912;7.356;2023-07-24T06:03:50;98436.53;;;23.25;55.42
61805;BME280;47725;47.912;7.356;2023-07-24T06:07:50;98438.97;;;23.33;55.50
61805;BME280;47725;47.912;7.356;2023-07-24T06:11:50;98446.17;;;23.39;55.43
61805;BME280;47725;47.912;7.356;2023-07-24T06:15:51;98452.62;;;23.47;55.21
61805;BME280;47725;47.912;7.356;2023-07-24T06:19:50;98461.77;;;23.55;55.16
61805;BME280;47725;47.912;7.356;2023-07-24T06:23:50;98475.15;;;23.60;55.33
61805;BME280;47725;47.912;7.356;2023-07-24T06:27:50;98476.97;;;23.64;56.39
61805;BME280;47725;47.912;7.356;2023-07-24T06:31:50;98471.62;;;23.63;57.06
61805;BME280;47725;47.912;7.356;2023-07-24T06:35:50;98465.62;;;23.58;57.71
61805;BME280;47725;47.912;7.356;2023-07-24T06:39:50;98460.54;;;23.50;57.82
61805;BME280;47725;47.912;7.356;2023-07-24T06:43:51;98456.11;;;23.41;57.90
61805;BME280;47725;47.912;7.356;2023-07-24T06:47:51;98460.61;;;23.32;58.34
61805;BME280;47725;47.912;7.356;2023-07-24T06:51:50;98469.78;;;23.21;58.35
61805;BME280;47725;47.912;7.356;2023-07-24T06:55:50;98476.61;;;23.14;58.27
61805;BME280;47725;47.912;7.356;2023-07-24T06:59:50;98482.22;;;23.07;58.33
61805;BME280;47725;47.912;7.356;2023-07-24T07:03:50;98481.19;;;23.03;58.29
61805;BME280;47725;47.912;7.356;2023-07-24T07:07:50;98484.03;;;23.01;58.46
61805;BME280;47725;47.912;7.356;2023-07-24T07:11:50;98482.37;;;22.98;59.04
61805;BME280;47725;47.912;7.356;2023-07-24T07:15:50;98481.55;;;22.95;59.22
61805;BME280;47725;47.912;7.356;2023-07-24T07:19:50;98484.83;;;22.94;59.10
61805;BME280;47725;47.912;7.356;2023-07-24T07:23:50;98485.11;;;22.95;59.04
61805;BME280;47725;47.912;7.356;2023-07-24T07:27:50;98482.12;;;22.95;59.47
61805;BME280;47725;47.912;7.356;2023-07-24T07:31:50;98479.44;;;22.94;59.74
61805;BME280;47725;47.912;7.356;2023-07-24T07:35:50;98471.73;;;22.92;59.27
61805;BME280;47725;47.912;7.356;2023-07-24T07:39:50;98466.09;;;22.88;59.17
61805;BME280;47725;47.912;7.356;2023-07-24T07:43:50;98462.62;;;22.85;59.10
61805;BME280;47725;47.912;7.356;2023-07-24T07:47:50;98460.71;;;22.81;59.53
61805;BME280;47725;47.912;7.356;2023-07-24T07:51:50;98454.96;;;22.78;59.57
61805;BME280;47725;47.912;7.356;2023-07-24T07:55:56;98446.30;;;22.75;59.42
61805;BME280;47725;47.912;7.356;2023-07-24T07:59:50;98438.55;;;22.73;59.42
61805;BME280;47725;47.912;7.356;2023-07-24T08:03:50;98430.69;;;22.74;59.49
61805;BME280;47725;47.912;7.356;2023-07-24T08:07:50;98421.74;;;22.76;59.45
61805;BME280;47725;47.912;7.356;2023-07-24T08:11:51;98412.64;;;22.81;59.42
61805;BME280;47725;47.912;7.356;2023-07-24T08:15:50;98406.25;;;22.86;59.31
61805;BME280;47725;47.912;7.356;2023-07-24T08:19:50;98400.95;;;22.90;59.19
61805;BME280;47725;47.912;7.356;2023-07-24T08:23:50;98398.68;;;22.91;59.34
61805;BME280;47725;47.912;7.356;2023-07-24T08:27:50;98398.10;;;22.91;59.57
61805;BME280;47725;47.912;7.356;2023-07-24T08:31:50;98394.53;;;22.91;59.63
61805;BME280;47725;47.912;7.356;2023-07-24T08:36:03;98394.70;;;22.88;59.89
61805;BME280;47725;47.912;7.356;2023-07-24T08:39:50;98395.20;;;22.84;60.07
61805;BME280;47725;47.912;7.356;2023-07-24T08:43:50;98396.48;;;22.80;60.95
61805;BME280;47725;47.912;7.356;2023-07-24T08:47:50;98396.66;;;22.73;61.10
61805;BME280;47725;47.912;7.356;2023-07-24T08:51:50;98400.51;;;22.67;61.39
61805;BME280;47725;47.912;7.356;2023-07-24T08:55:50;98415.20;;;22.59;62.36
61805;BME280;47725;47.912;7.356;2023-07-24T08:59:50;98435.00;;;22.48;63.64
61805;BME280;47725;47.912;7.356;2023-07-24T09:03:50;98454.22;;;22.37;64.04
61805;BME280;47725;47.912;7.356;2023-07-24T09:07:50;98472.07;;;22.24;64.95
61805;BME280;47725;47.912;7.356;2023-07-24T09:11:53;98480.00;;;22.12;65.29
61805;BME280;47725;47.912;7.356;2023-07-24T09:15:50;98486.88;;;22.02;65.50
61805;BME280;47725;47.912;7.356;2023-07-24T09:19:55;98498.83;;;21.95;66.16
61805;BME280;47725;47.912;7.356;2023-07-24T09:23:50;98507.56;;;21.87;66.63
61805;BME280;47725;47.912;7.356;2023-07-24T09:27:50;98504.05;;;21.80;66.35
61805;BME280;47725;47.912;7.356;2023-07-24T09:31:50;98495.14;;;21.76;66.39
61805;BME280;47725;47.912;7.356;2023-07-24T09:35:57;98484.12;;;21.72;66.11
61805;BME280;47725;47.912;7.356;2023-07-24T09:39:50;98480.02;;;21.70;65.82
61805;BME280;47725;47.912;7.356;2023-07-24T09:43:57;98483.67;;;21.64;65.26
61805;BME280;47725;47.912;7.356;2023-07-24T09:47:50;98492.19;;;21.51;65.34
61805;BME280;47725;47.912;7.356;2023-07-24T09:51:50;98498.46;;;21.37;65.31
61805;BME280;47725;47.912;7.356;2023-07-24T09:56:01;98504.52;;;21.23;65.42
61805;BME280;47725;47.912;7.356;2023-07-24T09:59:50;98509.25;;;21.13;65.42
61805;BME280;47725;47.912;7.356;2023-07-24T10:03:50;98495.29;;;21.08;65.06
61805;BME280;47725;47.912;7.356;2023-07-24T10:07:51;98473.50;;;21.08;64.83
61805;BME280;47725;47.912;7.356;2023-07-24T10:11:50;98436.63;;;21.10;64.77
61805;BME280;47725;47.912;7.356;2023-07-24T10:15:50;98419.14;;;21.13;64.54
61805;BME280;47725;47.912;7.356;2023-07-24T10:19:50;98426.06;;;21.17;65.58
61805;BME280;47725;47.912;7.356;2023-07-24T10:23:50;98432.54;;;21.23;66.55
61805;BME280;47725;47.912;7.356;2023-07-24T10:27:50;98437.72;;;21.30;66.12
61805;BME280;47725;47.912;7.356;2023-07-24T10:31:53;98439.62;;;21.37;65.81
61805;BME280;47725;47.912;7.356;2023-07-24T10:35:54;98441.97;;;21.48;65.33
61805;BME280;47725;47.912;7.356;2023-07-24T10:39:50;98445.47;;;21.63;65.60
61805;BME280;47725;47.912;7.356;2023-07-24T10:43:51;98450.47;;;21.80;65.21
61805;BME280;47725;47.912;7.356;2023-07-24T10:47:50;98454.78;;;21.99;64.15
61805;BME280;47725;47.912;7.356;2023-07-24T10:51:59;98455.30;;;22.21;64.19
61805;BME280;47725;47.912;7.356;2023-07-24T10:55:51;98454.25;;;22.47;64.15
61805;BME280;47725;47.912;7.356;2023-07-24T10:59:50;98456.89;;;22.75;63.68
61805;BME280;47725;47.912;7.356;2023-07-24T11:03:50;98459.15;;;22.98;63.45
61805;BME280;47725;47.912;7.356;2023-07-24T11:07:50;98459.46;;;23.17;62.92
61805;BME280;47725;47.912;7.356;2023-07-24T11:11:50;98458.37;;;23.36;61.94
61805;BME280;47725;47.912;7.356;2023-07-24T11:15:51;98454.72;;;23.55;61.97
61805;BME280;47725;47.912;7.356;2023-07-24T11:19:50;98450.02;;;23.74;61.65
61805;BME280;47725;47.912;7.356;2023-07-24T11:23:51;98448.19;;;23.98;61.33
61805;BME280;47725;47.912;7.356;2023-07-24T11:27:50;98449.39;;;24.24;60.70
61805;BME280;47725;47.912;7.356;2023-07-24T11:31:54;98452.51;;;24.44;59.40
61805;BME280;47725;47.912;7.356;2023-07-24T11:35:50;98455.95;;;24.53;59.97
61805;BME280;47725;47.912;7.356;2023-07-24T11:40:00;98454.07;;;24.54;60.40
61805;BME280;47725;47.912;7.356;2023-07-24T11:43:50;98448.97;;;24.53;60.95
61805;BME280;47725;47.912;7.356;2023-07-24T11:47:50;98444.71;;;24.52;60.77
61805;BME280;47725;47.912;7.356;2023-07-24T11:51:50;98442.13;;;24.47;60.29
61805;BME280;47725;47.912;7.356;2023-07-24T11:55:50;98439.62;;;24.42;61.14
61805;BME280;47725;47.912;7.356;2023-07-24T11:59:50;98436.24;;;24.38;59.78
61805;BME280;47725;47.912;7.356;2023-07-24T12:03:50;98434.88;;;24.37;60.12
61805;BME280;47725;47.912;7.356;2023-07-24T12:07:50;98433.04;;;24.37;60.01
61805;BME280;47725;47.912;7.356;2023-07-24T12:11:50;98431.75;;;24.38;60.02
61805;BME280;47725;47.912;7.356;2023-07-24T12:15:50;98429.47;;;24.37;59.67
61805;BME280;47725;47.912;7.356;2023-07-24T12:19:50;98425.51;;;24.35;60.38
61805;BME280;47725;47.912;7.356;2023-07-24T12:23:50;98417.54;;;24.34;60.46
61805;BME280;47725;47.912;7.356;2023-07-24T12:27:50;98415.58;;;24.36;59.94
61805;BME280;47725;47.912;7.356;2023-07-24T12:31:50;98411.08;;;24.40;59.61
61805;BME280;47725;47.912;7.356;2023-07-24T12:35:50;98407.70;;;24.48;59.33
61805;BME280;47725;47.912;7.356;2023-07-24T12:39:50;98408.08;;;24.58;58.43
61805;BME280;47725;47.912;7.356;2023-07-24T12:43:50;98407.28;;;24.64;57.99
61805;BME280;47725;47.912;7.356;2023-07-24T12:47:50;98405.30;;;24.68;58.49
61805;BME280;47725;47.912;7.356;2023-07-24T12:51:50;98401.06;;;24.73;58.72
61805;BME280;47725;47.912;7.356;2023-07-24T12:55:50;98396.53;;;24.75;58.78
61805;BME280;47725;47.912;7.356;2023-07-24T12:59:50;98394.59;;;24.72;58.70
61805;BME280;47725;47.912;7.356;2023-07-24T13:03:50;98392.03;;;24.69;58.49
61805;BME280;47725;47.912;7.356;2023-07-24T13:07:50;98391.97;;;24.62;59.41
61805;BME280;47725;47.912;7.356;2023-07-24T13:11:50;98390.97;;;24.57;60.43
61805;BME280;47725;47.912;7.356;2023-07-24T13:15:50;98389.22;;;24.54;60.76
61805;BME280;47725;47.912;7.356;2023-07-24T13:19:50;98389.25;;;24.55;60.74
61805;BME280;47725;47.912;7.356;2023-07-24T13:23:50;98390.94;;;24.57;60.19
61805;BME280;47725;47.912;7.356;2023-07-24T13:27:50;98389.06;;;24.58;58.52
61805;BME280;47725;47.912;7.356;2023-07-24T13:31:50;98385.74;;;24.62;57.32
61805;BME280;47725;47.912;7.356;2023-07-24T13:35:50;98380.02;;;24.71;56.32
61805;BME280;47725;47.912;7.356;2023-07-24T13:39:50;98370.31;;;24.80;55.66
61805;BME280;47725;47.912;7.356;2023-07-24T13:43:50;98362.77;;;24.92;54.71
61805;BME280;47725;47.912;7.356;2023-07-24T13:47:50;98355.78;;;25.05;52.38
61805;BME280;47725;47.912;7.356;2023-07-24T13:51:50;98351.44;;;25.19;51.93
61805;BME280;47725;47.912;7.356;2023-07-24T13:55:50;98350.14;;;25.35;50.33
61805;BME280;47725;47.912;7.356;2023-07-24T13:59:50;98345.25;;;25.51;50.25
61805;BME280;47725;47.912;7.356;2023-07-24T14:03:50;98343.30;;;25.67;50.38
61805;BME280;47725;47.912;7.356;2023-07-24T14:07:50;98340.58;;;25.85;49.54
61805;BME280;47725;47.912;7.356;2023-07-24T14:11:50;98336.67;;;26.02;50.16
61805;BME280;47725;47.912;7.356;2023-07-24T14:15:50;98331.55;;;26.19;49.74
61805;BME280;47725;47.912;7.356;2023-07-24T14:19:50;98322.34;;;26.31;49.75
61805;BME280;47725;47.912;7.356;2023-07-24T14:23:50;98312.43;;;26.43;50.44
61805;BME280;47725;47.912;7.356;2023-07-24T14:27:50;98302.53;;;26.55;48.63
61805;BME280;47725;47.912;7.356;2023-07-24T14:31:50;98295.54;;;26.64;49.47
61805;BME280;47725;47.912;7.356;2023-07-24T14:35:50;98289.75;;;26.73;49.57
61805;BME280;47725;47.912;7.356;2023-07-24T14:39:50;98284.91;;;26.80;49.09
61805;BME280;47725;47.912;7.356;2023-07-24T14:43:50;98283.28;;;26.85;49.41
61805;BME280;47725;47.912;7.356;2023-07-24T14:47:50;98283.83;;;26.89;48.96
61805;BME280;47725;47.912;7.356;2023-07-24T14:51:50;98285.93;;;26.93;48.71
61805;BME280;47725;47.912;7.356;2023-07-24T14:55:50;98288.48;;;26.90;49.07
61805;BME280;47725;47.912;7.356;2023-07-24T14:59:50;98290.17;;;26.84;49.22
61805;BME280;47725;47.912;7.356;2023-07-24T15:03:50;98291.71;;;26.78;49.90
61805;BME280;47725;47.912;7.356;2023-07-24T15:07:50;98292.83;;;26.73;50.25
61805;BME280;47725;47.912;7.356;2023-07-24T15:11:50;98297.81;;;26.69;51.42
61805;BME280;47725;47.912;7.356;2023-07-24T15:15:50;98300.76;;;26.66;51.21
61805;BME280;47725;47.912;7.356;2023-07-24T15:19:50;98301.79;;;26.63;51.46
61805;BME280;47725;47.912;7.356;2023-07-24T15:23:50;98305.11;;;26.60;51.63
61805;BME280;47725;47.912;7.356;2023-07-24T15:27:50;98306.62;;;26.55;51.92
61805;BME280;47725;47.912;7.356;2023-07-24T15:31:50;98309.09;;;26.51;51.69
61805;BME280;47725;47.912;7.356;2023-07-24T15:35:50;98312.25;;;26.49;51.72
61805;BME280;47725;47.912;7.356;2023-07-24T15:39:50;98313.89;;;26.49;51.88
61805;BME280;47725;47.912;7.356;2023-07-24T15:43:50;98314.01;;;26.51;50.86
61805;BME280;47725;47.912;7.356;2023-07-24T15:47:50;98313.16;;;26.50;50.88
61805;BME280;47725;47.912;7.356;2023-07-24T15:51:50;98314.84;;;26.51;50.75
61805;BME280;47725;47.912;7.356;2023-07-24T15:55:50;98314.58;;;26.52;50.87
61805;BME280;47725;47.912;7.356;2023-07-24T15:59:50;98313.56;;;26.50;50.67
61805;BME280;47725;47.912;7.356;2023-07-24T16:03:50;98314.31;;;26.48;50.53
61805;BME280;47725;47.912;7.356;2023-07-24T16:07:50;98314.61;;;26.45;50.72
61805;BME280;47725;47.912;7.356;2023-07-24T16:11:50;98314.34;;;26.44;50.01
61805;BME280;47725;47.912;7.356;2023-07-24T16:15:50;98313.49;;;26.42;50.50
61805;BME280;47725;47.912;7.356;2023-07-24T16:19:50;98311.74;;;26.42;50.34
61805;BME280;47725;47.912;7.356;2023-07-24T16:23:50;98310.91;;;26.42;50.28
61805;BME280;47725;47.912;7.356;2023-07-24T16:27:50;98312.34;;;26.44;50.47
61805;BME280;47725;47.912;7.356;2023-07-24T16:31:50;98311.87;;;26.47;49.96
61805;BME280;47725;47.912;7.356;2023-07-24T16:35:50;98310.50;;;26.52;49.51
61805;BME280;47725;47.912;7.356;2023-07-24T16:39:50;98308.03;;;26.55;49.32
61805;BME280;47725;47.912;7.356;2023-07-24T16:43:50;98307.51;;;26.58;48.90
61805;BME280;47725;47.912;7.356;2023-07-24T16:47:50;98307.37;;;26.62;48.93
61805;BME280;47725;47.912;7.356;2023-07-24T16:51:50;98306.70;;;26.62;48.97
61805;BME280;47725;47.912;7.356;2023-07-24T16:55:50;98306.78;;;26.62;49.04
61805;BME280;47725;47.912;7.356;2023-07-24T16:59:50;98308.18;;;26.61;49.26
61805;BME280;47725;47.912;7.356;2023-07-24T17:03:50;98307.90;;;26.60;49.17
61805;BME280;47725;47.912;7.356;2023-07-24T17:07:50;98310.58;;;26.59;48.66
61805;BME280;47725;47.912;7.356;2023-07-24T17:11:50;98313.21;;;26.57;49.16
61805;BME280;47725;47.912;7.356;2023-07-24T17:15:50;98316.13;;;26.54;49.40
61805;BME280;47725;47.912;7.356;2023-07-24T17:19:50;98319.78;;;26.52;49.52
61805;BME280;47725;47.912;7.356;2023-07-24T17:23:50;98321.98;;;26.49;49.39
61805;BME280;47725;47.912;7.356;2023-07-24T17:27:50;98324.22;;;26.48;49.40
61805;BME280;47725;47.912;7.356;2023-07-24T17:31:50;98324.18;;;26.46;48.86
61805;BME280;47725;47.912;7.356;2023-07-24T17:35:50;98324.40;;;26.42;48.67
61805;BME280;47725;47.912;7.356;2023-07-24T17:39:50;98325.45;;;26.39;48.54
61805;BME280;47725;47.912;7.356;2023-07-24T17:43:50;98325.75;;;26.35;48.70
61805;BME280;47725;47.912;7.356;2023-07-24T17:47:50;98326.28;;;26.31;48.45
61805;BME280;47725;47.912;7.356;2023-07-24T17:51:50;98326.56;;;26.27;47.91
61805;BME280;47725;47.912;7.356;2023-07-24T17:55:50;98326.03;;;26.23;47.98
61805;BME280;47725;47.912;7.356;2023-07-24T17:59:50;98325.83;;;26.20;48.10
61805;BME280;47725;47.912;7.356;2023-07-24T18:03:50;98323.63;;;26.18;47.45
61805;BME280;47725;47.912;7.356;2023-07-24T18:07:50;98320.75;;;26.15;47.82
61805;BME280;47725;47.912;7.356;2023-07-24T18:11:50;98321.64;;;26.13;48.00
61805;BME280;47725;47.912;7.356;2023-07-24T18:15:50;98322.20;;;26.12;47.77
61805;BME280;47725;47.912;7.356;2023-07-24T18:19:50;98322.69;;;26.10;47.99
61805;BME280;47725;47.912;7.356;2023-07-24T18:23:50;98322.92;;;26.09;47.92
61805;BME280;47725;47.912;7.356;2023-07-24T18:27:50;98322.92;;;26.09;47.92
61805;BME280;47725;47.912;7.356;2023-07-24T18:31:50;98323.02;;;26.08;48.14
61805;BME280;47725;47.912;7.356;2023-07-24T18:35:50;98324.72;;;26.05;48.06
61805;BME280;47725;47.912;7.356;2023-07-24T18:39:50;98326.88;;;26.00;48.46
61805;BME280;47725;47.912;7.356;2023-07-24T18:43:50;98328.94;;;25.93;49.14
61805;BME280;47725;47.912;7.356;2023-07-24T18:47:50;98329.61;;;25.86;49.67
61805;BME280;47725;47.912;7.356;2023-07-24T18:51:50;98327.73;;;25.77;49.78
61805;BME280;47725;47.912;7.356;2023-07-24T18:55:50;98326.76;;;25.66;50.12
61805;BME280;47725;47.912;7.356;2023-07-24T18:59:50;98327.60;;;25.55;50.25
61805;BME280;47725;47.912;7.356;2023-07-24T19:03:50;98327.00;;;25.44;50.46
61805;BME280;47725;47.912;7.356;2023-07-24T19:07:50;98326.65;;;25.31;50.96
61805;BME280;47725;47.912;7.356;2023-07-24T19:11:50;98326.15;;;25.17;51.68
61805;BME280;47725;47.912;7.356;2023-07-24T19:15:50;98325.42;;;25.04;51.99
61805;BME280;47725;47.912;7.356;2023-07-24T19:19:50;98325.69;;;24.90;52.21
61805;BME280;47725;47.912;7.356;2023-07-24T19:23:50;98325.14;;;24.77;52.42
61805;BME280;47725;47.912;7.356;2023-07-24T19:27:50;98325.14;;;24.64;52.55
61805;BME280;47725;47.912;7.356;2023-07-24T19:31:50;98326.05;;;24.51;52.79
61805;BME280;47725;47.912;7.356;2023-07-24T19:35:50;98326.12;;;24.37;53.44
61805;BME280;47725;47.912;7.356;2023-07-24T19:39:50;98327.76;;;24.23;53.84
61805;BME280;47725;47.912;7.356;2023-07-24T19:43:50;98330.86;;;24.12;53.84
61805;BME280;47725;47.912;7.356;2023-07-24T19:47:50;98334.27;;;24.05;53.74
61805;BME280;47725;47.912;7.356;2023-07-24T19:51:50;98336.30;;;23.99;53.77
61805;BME280;47725;47.912;7.356;2023-07-24T19:55:50;98336.42;;;23.92;53.86
61805;BME280;47725;47.912;7.356;2023-07-24T19:59:50;98337.27;;;23.84;54.47
61805;BME280;47725;47.912;7.356;2023-07-24T20:03:50;98338.51;;;23.75;54.62
61805;BME280;47725;47.912;7.356;2023-07-24T20:07:50;98340.22;;;23.67;54.99
61805;BME280;47725;47.912;7.356;2023-07-24T20:11:50;98343.52;;;23.59;55.45
61805;BME280;47725;47.912;7.356;2023-07-24T20:15:50;98346.62;;;23.49;55.65
61805;BME280;47725;47.912;7.356;2023-07-24T20:19:50;98349.94;;;23.39;56.72
61805;BME280;47725;47.912;7.356;2023-07-24T20:23:50;98352.12;;;23.29;56.76
61805;BME280;47725;47.912;7.356;2023-07-24T20:27:50;98353.06;;;23.20;57.05
61805;BME280;47725;47.912;7.356;2023-07-24T20:31:50;98354.49;;;23.11;57.19
61805;BME280;47725;47.912;7.356;2023-07-24T20:35:50;98355.35;;;23.03;57.10
61805;BME280;47725;47.912;7.356;2023-07-24T20:39:50;98354.90;;;22.95;57.19
61805;BME280;47725;47.912;7.356;2023-07-24T20:43:50;98353.33;;;22.89;57.00
61805;BME280;47725;47.912;7.356;2023-07-24T20:47:50;98351.89;;;22.84;56.82
61805;BME280;47725;47.912;7.356;2023-07-24T20:51:50;98350.20;;;22.80;56.85
61805;BME280;47725;47.912;7.356;2023-07-24T20:55:50;98348.88;;;22.75;57.32
61805;BME280;47725;47.912;7.356;2023-07-24T20:59:50;98348.17;;;22.69;57.63
61805;BME280;47725;47.912;7.356;2023-07-24T21:03:50;98347.27;;;22.63;57.97
61805;BME280;47725;47.912;7.356;2023-07-24T21:07:50;98347.44;;;22.57;58.19
61805;BME280;47725;47.912;7.356;2023-07-24T21:11:50;98347.97;;;22.52;58.20
61805;BME280;47725;47.912;7.356;2023-07-24T21:15:50;98348.97;;;22.47;58.25